Time;durP1;ratioP1;P1;durP2;ratioP2;P2;SDS_P1;SDS_P2;PMS_P1;PMS_P2;Temp;Humidity;BMP_temperature;BMP_pressure;BME280_temperature;BME280_humidity;BME280_pressure;Samples;Min_cycle;Max_cycle;Signal;HPM_P1;HPM_P2
2023/04/16 00:00:23;;;;;;;3.03;2.92;;;10.50;99.90;;;;;;4991583;28;20622;-63
2023/04/16 00:02:50;;;;;;;3.17;3.08;;;10.40;99.90;;;;;;4992716;28;20202;-64
2023/04/16 00:05:17;;;;;;;3.00;2.90;;;10.40;99.90;;;;;;4993369;28;20216;-64
2023/04/16 00:07:45;;;;;;;2.90;2.80;;;10.40;99.90;;;;;;4983872;28;20233;-63
2023/04/16 00:10:11;;;;;;;3.10;3.00;;;10.40;99.90;;;;;;4983454;28;20226;-64
2023/04/16 00:12:38;;;;;;;3.20;3.10;;;10.40;99.90;;;;;;4981598;28;20230;-63
2023/04/16 00:15:06;;;;;;;3.17;3.08;;;10.40;99.90;;;;;;4992009;28;20202;-64
2023/04/16 00:17:33;;;;;;;3.20;3.10;;;10.30;99.90;;;;;;4983963;28;20688;-63
2023/04/16 00:19:59;;;;;;;3.38;3.28;;;10.30;99.90;;;;;;4979598;28;20223;-63
2023/04/16 00:22:26;;;;;;;3.55;3.35;;;10.30;99.90;;;;;;4977258;28;20211;-62
2023/04/16 00:24:54;;;;;;;3.42;3.28;;;10.30;99.90;;;;;;4972270;28;20573;-63
2023/04/16 00:27:21;;;;;;;3.47;3.28;;;10.30;99.90;;;;;;4973125;28;20447;-63
2023/04/16 00:29:48;;;;;;;3.47;3.28;;;10.30;99.90;;;;;;4972218;28;20277;-63
2023/04/16 00:32:15;;;;;;;3.35;3.15;;;10.30;99.90;;;;;;4977047;28;20297;-64
2023/04/16 00:34:42;;;;;;;3.70;3.50;;;10.30;99.90;;;;;;4978742;28;20225;-63
2023/04/16 00:37:08;;;;;;;3.63;3.42;;;10.30;99.90;;;;;;4976928;28;20209;-64
2023/04/16 00:39:36;;;;;;;3.17;3.08;;;10.30;99.90;;;;;;4975822;28;20227;-64
2023/04/16 00:42:04;;;;;;;3.38;3.28;;;10.30;99.90;;;;;;4976105;28;20748;-62
2023/04/16 00:44:33;;;;;;;3.40;3.25;;;10.30;99.90;;;;;;4976579;28;20218;-64
2023/04/16 00:47:01;;;;;;;3.03;2.92;;;10.30;99.90;;;;;;4976549;28;20218;-63
2023/04/16 00:49:28;;;;;;;3.38;3.22;;;10.30;99.90;;;;;;4976127;28;20226;-63
2023/04/16 00:51:55;;;;;;;3.25;3.15;;;10.20;99.90;;;;;;4976282;28;20274;-64
2023/04/16 00:54:22;;;;;;;3.30;3.20;;;10.30;99.90;;;;;;4976144;28;20213;-64
2023/04/16 00:56:50;;;;;;;3.42;3.22;;;10.30;99.90;;;;;;4975977;28;20282;-65
2023/04/16 00:59:20;;;;;;;3.50;3.30;;;10.30;99.90;;;;;;4975023;28;20223;-64
2023/04/16 01:01:46;;;;;;;3.35;3.20;;;10.30;99.90;;;;;;4975764;28;20216;-64
2023/04/16 01:04:13;;;;;;;3.35;3.15;;;10.30;99.90;;;;;;4976263;28;20225;-64
2023/04/16 01:06:40;;;;;;;3.53;3.33;;;10.30;99.90;;;;;;4976802;28;20213;-64
2023/04/16 01:09:07;;;;;;;3.50;3.40;;;10.30;99.90;;;;;;4975754;28;20727;-63
2023/04/16 01:11:35;;;;;;;2.63;2.53;;;10.30;99.90;;;;;;4981533;28;20214;-63
2023/04/16 01:14:02;;;;;;;3.17;3.08;;;10.30;99.90;;;;;;4978844;28;20211;-65
2023/04/16 01:16:32;;;;;;;3.17;3.08;;;10.30;99.90;;;;;;4976277;28;20237;-65
2023/04/16 01:18:58;;;;;;;3.13;3.03;;;10.30;99.90;;;;;;4976378;28;20226;-65
2023/04/16 01:21:27;;;;;;;3.42;3.22;;;10.30;99.90;;;;;;4975262;28;20238;-66
2023/04/16 01:23:53;;;;;;;3.40;3.20;;;10.20;99.90;;;;;;4976900;28;20224;-66
2023/04/16 01:26:20;;;;;;;3.50;3.30;;;10.30;99.90;;;;;;4976610;28;20726;-64
2023/04/16 01:28:47;;;;;;;3.40;3.20;;;10.30;99.90;;;;;;4976702;28;20471;-64
2023/04/16 01:31:14;;;;;;;3.28;3.17;;;10.30;99.90;;;;;;4980723;28;20213;-65
2023/04/16 01:33:41;;;;;;;3.03;2.92;;;10.40;99.90;;;;;;4979774;28;20211;-66
2023/04/16 01:36:08;;;;;;;3.35;3.17;;;10.40;99.90;;;;;;4975302;28;20209;-66
2023/04/16 01:38:36;;;;;;;2.97;2.87;;;10.40;99.90;;;;;;4975764;28;20233;-64
2023/04/16 01:41:03;;;;;;;3.17;2.97;;;10.50;99.90;;;;;;4975615;28;20706;-66
2023/04/16 01:43:29;;;;;;;2.97;2.88;;;10.50;99.90;;;;;;4976319;28;20769;-67
2023/04/16 01:46:12;;;;;;;2.80;2.70;;;10.50;99.90;;;;;;4976806;28;20225;-65
2023/04/16 01:48:38;;;;;;;2.80;2.70;;;10.60;99.90;;;;;;4977037;28;20240;-64
2023/04/16 01:51:05;;;;;;;3.10;3.00;;;10.60;99.90;;;;;;4976611;28;20707;-64
2023/04/16 01:53:32;;;;;;;3.13;3.03;;;10.50;99.90;;;;;;4977139;28;20294;-64
2023/04/16 01:56:00;;;;;;;3.40;3.20;;;10.60;99.90;;;;;;4978954;28;20218;-64
2023/04/16 01:58:29;;;;;;;3.17;3.08;;;10.50;99.90;;;;;;4974198;28;20226;-65
2023/04/16 02:00:56;;;;;;;3.20;3.10;;;10.50;99.90;;;;;;4976303;28;20221;-67
2023/04/16 02:03:23;;;;;;;3.20;3.10;;;10.50;99.90;;;;;;4977830;28;20700;-65
2023/04/16 02:05:50;;;;;;;2.75;2.65;;;10.40;99.90;;;;;;4976319;28;20313;-64
2023/04/16 02:08:17;;;;;;;3.63;3.42;;;10.40;99.90;;;;;;4974885;28;20608;-65
2023/04/16 02:10:46;;;;;;;3.33;3.17;;;10.50;99.90;;;;;;4974687;28;20207;-65
2023/04/16 02:13:14;;;;;;;3.08;2.97;;;10.50;99.90;;;;;;4982775;28;20225;-66
2023/04/16 02:15:45;;;;;;;2.95;2.85;;;10.50;99.90;;;;;;4975622;28;20294;-65
2023/04/16 02:18:12;;;;;;;3.25;3.15;;;10.50;99.90;;;;;;4974675;28;20206;-65
2023/04/16 02:20:40;;;;;;;3.05;2.95;;;10.50;99.90;;;;;;4974290;28;20604;-64
2023/04/16 02:23:07;;;;;;;2.80;2.70;;;10.50;99.90;;;;;;4974557;28;20553;-65
2023/04/16 02:25:39;;;;;;;2.97;2.83;;;10.60;99.90;;;;;;4974995;28;20207;-65
2023/04/16 02:28:06;;;;;;;2.50;2.40;;;10.60;99.90;;;;;;4974430;28;20257;-65
2023/04/16 02:30:35;;;;;;;2.83;2.72;;;10.70;99.90;;;;;;4974652;28;20302;-64
2023/04/16 02:33:04;;;;;;;3.45;3.25;;;10.70;99.90;;;;;;4974547;28;20207;-65
2023/04/16 02:35:31;;;;;;;3.45;3.25;;;10.60;99.90;;;;;;4974309;28;20209;-65
2023/04/16 02:37:58;;;;;;;2.72;2.63;;;10.50;99.90;;;;;;4974160;28;20221;-64
2023/04/16 02:40:25;;;;;;;3.20;3.10;;;10.50;99.90;;;;;;4973466;28;20210;-65
2023/04/16 02:42:52;;;;;;;2.97;2.88;;;10.50;99.90;;;;;;4974112;28;20213;-65
2023/04/16 02:45:19;;;;;;;3.00;2.90;;;10.40;99.90;;;;;;4975512;28;20332;-64
2023/04/16 02:47:48;;;;;;;3.10;3.00;;;10.40;99.90;;;;;;4973754;28;20793;-63
2023/04/16 02:50:14;;;;;;;2.90;2.80;;;10.50;99.90;;;;;;4973151;28;20226;-64
2023/04/16 02:52:41;;;;;;;2.65;2.55;;;10.50;99.90;;;;;;4973887;28;20828;-64
2023/04/16 02:55:10;;;;;;;3.33;3.13;;;10.60;99.90;;;;;;4974105;28;20301;-65
2023/04/16 02:57:36;;;;;;;2.83;2.72;;;10.50;99.90;;;;;;4973156;28;20587;-64
2023/04/16 03:00:04;;;;;;;3.47;3.28;;;10.50;99.90;;;;;;4973316;28;20226;-64
2023/04/16 03:02:31;;;;;;;2.45;2.35;;;10.50;99.90;;;;;;4973475;28;20317;-65
2023/04/16 03:04:59;;;;;;;2.80;2.70;;;10.60;99.90;;;;;;4973481;28;20203;-65
2023/04/16 03:07:26;;;;;;;2.42;2.33;;;10.60;99.90;;;;;;4973325;28;20206;-63
2023/04/16 03:09:53;;;;;;;2.45;2.35;;;10.60;99.90;;;;;;4972329;28;20757;-64
2023/04/16 03:12:20;;;;;;;2.88;2.78;;;10.70;99.90;;;;;;4972757;28;20206;-64
2023/04/16 03:14:46;;;;;;;2.80;2.70;;;10.70;99.90;;;;;;4973185;28;20206;-65
2023/04/16 03:17:13;;;;;;;2.83;2.72;;;10.70;99.90;;;;;;4973414;28;20236;-64
2023/04/16 03:19:40;;;;;;;2.47;2.38;;;10.70;99.90;;;;;;4973618;28;20233;-64
2023/04/16 03:22:08;;;;;;;2.40;2.30;;;10.60;99.90;;;;;;4974139;28;20207;-66
2023/04/16 03:24:36;;;;;;;2.90;2.80;;;10.70;99.90;;;;;;4973522;28;20206;-65
2023/04/16 03:27:03;;;;;;;2.47;2.38;;;10.70;99.90;;;;;;4973475;28;20218;-65
2023/04/16 03:29:30;;;;;;;2.70;2.60;;;10.70;99.90;;;;;;4972531;28;20237;-65
2023/04/16 03:31:56;;;;;;;2.25;2.15;;;10.80;99.90;;;;;;4974000;28;20325;-65
2023/04/16 03:34:23;;;;;;;2.40;2.30;;;10.80;99.90;;;;;;4975002;28;20233;-66
2023/04/16 03:36:50;;;;;;;2.60;2.50;;;10.80;99.90;;;;;;4977704;28;20210;-65
2023/04/16 03:39:19;;;;;;;2.30;2.20;;;10.70;99.90;;;;;;4979814;28;20223;-66
2023/04/16 03:41:46;;;;;;;2.17;2.08;;;10.70;99.90;;;;;;4975173;28;20242;-64
2023/04/16 03:44:13;;;;;;;2.20;2.10;;;10.80;99.90;;;;;;4974402;28;20202;-64
2023/04/16 03:46:39;;;;;;;2.55;2.45;;;10.70;99.90;;;;;;4974435;28;20215;-65
2023/04/16 03:49:06;;;;;;;2.40;2.30;;;10.80;99.90;;;;;;4973951;28;20317;-63
2023/04/16 03:51:33;;;;;;;2.00;1.90;;;10.80;99.90;;;;;;4973205;28;20982;-66
2023/04/16 03:54:00;;;;;;;2.30;2.20;;;10.80;99.90;;;;;;4973301;28;20202;-64
2023/04/16 03:56:28;;;;;;;2.17;2.08;;;10.80;99.90;;;;;;4972780;28;20238;-65
2023/04/16 03:58:55;;;;;;;2.17;2.08;;;10.80;99.90;;;;;;4974074;28;20266;-63
2023/04/16 04:01:21;;;;;;;2.27;2.17;;;10.80;99.90;;;;;;4983386;28;20209;-66
2023/04/16 04:03:48;;;;;;;2.47;2.38;;;10.80;99.90;;;;;;4984866;28;20214;-66
2023/04/16 04:06:15;;;;;;;2.33;2.23;;;10.80;99.90;;;;;;4985755;28;20293;-65
2023/04/16 04:08:43;;;;;;;2.35;2.25;;;10.90;99.90;;;;;;4990554;28;20297;-66
2023/04/16 04:11:09;;;;;;;2.17;2.08;;;10.90;99.90;;;;;;4990543;28;20261;-67
2023/04/16 04:13:38;;;;;;;2.40;2.30;;;10.80;99.90;;;;;;4977199;28;20217;-65
2023/04/16 04:16:05;;;;;;;1.85;1.80;;;10.90;99.90;;;;;;4976922;28;20305;-64
2023/04/16 04:18:32;;;;;;;2.05;1.95;;;10.80;99.90;;;;;;4976408;28;20227;-65
2023/04/16 04:20:59;;;;;;;2.38;2.28;;;10.80;99.90;;;;;;4976131;28;20221;-65
2023/04/16 04:23:26;;;;;;;2.38;2.28;;;10.80;99.90;;;;;;4977705;28;20218;-63
2023/04/16 04:25:53;;;;;;;2.35;2.25;;;10.80;99.90;;;;;;4976700;28;20209;-64
2023/04/16 04:28:19;;;;;;;2.30;2.20;;;10.90;99.90;;;;;;4976938;28;20245;-63
2023/04/16 04:30:48;;;;;;;2.60;2.50;;;10.80;99.90;;;;;;4975770;28;20216;-64
2023/04/16 04:33:14;;;;;;;2.40;2.30;;;10.80;99.90;;;;;;4976847;28;20728;-65
2023/04/16 04:35:41;;;;;;;2.17;2.08;;;10.80;99.90;;;;;;4976092;28;20202;-63
2023/04/16 04:38:08;;;;;;;2.38;2.28;;;10.90;99.90;;;;;;4976014;28;20666;-64
2023/04/16 04:40:35;;;;;;;2.28;2.17;;;10.90;99.90;;;;;;4975288;28;20210;-64
2023/04/16 04:43:02;;;;;;;2.10;2.00;;;11.00;99.90;;;;;;4976357;28;20211;-65
2023/04/16 04:45:28;;;;;;;2.40;2.30;;;10.90;99.90;;;;;;4975817;28;20210;-63
2023/04/16 04:47:57;;;;;;;2.20;2.10;;;10.90;99.90;;;;;;4975936;28;20297;-65
2023/04/16 04:50:23;;;;;;;2.50;2.40;;;10.90;99.90;;;;;;4975484;28;20232;-65
2023/04/16 04:52:50;;;;;;;2.08;1.98;;;10.90;99.90;;;;;;4975587;28;20218;-64
2023/04/16 04:55:17;;;;;;;2.20;2.10;;;10.80;99.90;;;;;;4975742;28;20295;-69
2023/04/16 04:57:44;;;;;;;2.10;2.00;;;10.80;99.90;;;;;;4975863;28;20210;-63
2023/04/16 05:00:11;;;;;;;2.10;2.00;;;10.90;99.90;;;;;;4981716;28;20218;-64
2023/04/16 05:02:38;;;;;;;2.30;2.20;;;10.80;99.90;;;;;;4996514;28;20262;-64
2023/04/16 05:05:07;;;;;;;2.10;2.00;;;10.90;99.90;;;;;;4994969;28;20760;-65
2023/04/16 05:07:34;;;;;;;2.20;2.10;;;10.90;99.90;;;;;;4995188;28;20214;-65
2023/04/16 05:10:00;;;;;;;2.20;2.10;;;10.90;99.90;;;;;;4994263;28;20712;-65
2023/04/16 05:12:27;;;;;;;2.40;2.30;;;10.80;99.90;;;;;;4995348;28;20398;-64
2023/04/16 05:14:54;;;;;;;2.40;2.30;;;10.80;99.90;;;;;;4996503;28;20214;-65
2023/04/16 05:17:21;;;;;;;2.50;2.40;;;11.10;99.90;;;;;;4995159;28;20210;-64
2023/04/16 05:19:48;;;;;;;2.20;2.10;;;10.90;99.90;;;;;;4993609;28;20231;-65
2023/04/16 05:22:17;;;;;;;2.38;2.28;;;10.80;99.90;;;;;;4994579;28;20206;-63
2023/04/16 05:24:45;;;;;;;1.95;1.85;;;10.80;99.90;;;;;;4994800;28;20297;-64
2023/04/16 05:27:11;;;;;;;2.00;1.90;;;10.80;99.90;;;;;;4994704;28;20240;-65
2023/04/16 05:29:38;;;;;;;2.10;2.00;;;10.80;99.90;;;;;;4993745;28;20321;-65
2023/04/16 05:32:05;;;;;;;2.10;2.00;;;10.80;99.90;;;;;;4994382;28;20237;-65
2023/04/16 05:34:32;;;;;;;2.60;2.50;;;10.80;99.90;;;;;;4994826;28;20877;-64
2023/04/16 05:36:59;;;;;;;2.72;2.63;;;10.80;99.90;;;;;;4994259;28;20667;-65
2023/04/16 05:39:27;;;;;;;2.60;2.50;;;10.80;99.90;;;;;;4993818;28;20233;-64
2023/04/16 05:41:54;;;;;;;2.35;2.25;;;10.80;99.90;;;;;;4994570;28;20220;-64
2023/04/16 05:44:21;;;;;;;2.20;2.10;;;10.80;99.90;;;;;;4994330;28;20210;-66
2023/04/16 05:46:48;;;;;;;2.80;2.70;;;10.70;99.90;;;;;;4994575;28;20261;-64
2023/04/16 05:49:14;;;;;;;2.50;2.40;;;10.60;99.90;;;;;;4993510;28;20237;-65
2023/04/16 05:51:41;;;;;;;2.88;2.78;;;10.40;99.90;;;;;;4995319;28;20213;-64
2023/04/16 05:54:08;;;;;;;2.70;2.60;;;10.30;99.90;;;;;;4995334;28;20539;-65
2023/04/16 05:56:36;;;;;;;2.90;2.80;;;10.20;99.90;;;;;;4997424;28;20206;-65
2023/04/16 05:59:03;;;;;;;2.63;2.53;;;10.10;99.90;;;;;;5005167;28;20651;-66
2023/04/16 06:01:30;;;;;;;2.30;2.20;;;10.10;99.90;;;;;;5001538;28;20206;-65
2023/04/16 06:03:57;;;;;;;2.38;2.28;;;10.10;99.90;;;;;;4995430;28;20212;-65
2023/04/16 06:06:24;;;;;;;2.90;2.80;;;10.20;99.90;;;;;;4994438;28;20584;-65
2023/04/16 06:08:50;;;;;;;2.25;2.15;;;10.30;99.90;;;;;;4999834;28;20232;-66
2023/04/16 06:11:17;;;;;;;2.10;2.00;;;10.20;99.90;;;;;;4999750;28;20210;-67
2023/04/16 06:13:45;;;;;;;2.47;2.38;;;10.20;99.90;;;;;;4994257;28;20606;-65
2023/04/16 06:16:12;;;;;;;2.20;2.10;;;10.30;99.90;;;;;;4994190;28;20297;-68
2023/04/16 06:18:39;;;;;;;2.10;2.00;;;10.30;99.90;;;;;;4994853;28;20240;-66
2023/04/16 06:21:06;;;;;;;2.58;2.47;;;10.20;99.90;;;;;;4994220;28;20218;-66
2023/04/16 06:23:33;;;;;;;2.37;2.27;;;10.20;99.90;;;;;;4995002;28;20557;-65
2023/04/16 06:25:59;;;;;;;2.40;2.30;;;10.10;99.90;;;;;;4994154;28;20268;-65
2023/04/16 06:28:26;;;;;;;2.58;2.47;;;10.10;99.90;;;;;;4993373;28;20222;-63
2023/04/16 06:30:54;;;;;;;2.80;2.70;;;10.10;99.90;;;;;;4992484;28;20206;-64
2023/04/16 06:33:21;;;;;;;2.70;2.60;;;10.00;99.90;;;;;;4993844;28;20640;-65
2023/04/16 06:35:48;;;;;;;2.90;2.80;;;10.00;99.90;;;;;;4994908;28;20220;-64
2023/04/16 06:38:15;;;;;;;2.67;2.50;;;10.00;99.90;;;;;;4995535;28;20212;-65
2023/04/16 06:40:42;;;;;;;2.65;2.55;;;10.00;99.90;;;;;;4995601;28;20673;-65
2023/04/16 06:43:09;;;;;;;2.67;2.58;;;9.90;99.90;;;;;;4999196;28;20206;-65
2023/04/16 06:45:36;;;;;;;2.80;2.70;;;9.90;99.90;;;;;;4995296;28;20220;-65
2023/04/16 06:48:05;;;;;;;2.83;2.72;;;9.90;99.90;;;;;;4994673;28;20210;-65
2023/04/16 06:50:31;;;;;;;2.93;2.83;;;9.80;99.90;;;;;;4993261;28;20764;-64
2023/04/16 06:52:58;;;;;;;2.97;2.88;;;9.80;99.90;;;;;;4993737;28;20216;-65
2023/04/16 06:55:25;;;;;;;2.90;2.80;;;9.80;99.90;;;;;;4994966;28;20209;-65
2023/04/16 06:57:52;;;;;;;3.13;2.92;;;9.80;99.90;;;;;;4994030;28;20206;-66
2023/04/16 07:00:19;;;;;;;2.60;2.50;;;9.70;99.90;;;;;;4996494;28;20329;-65
2023/04/16 07:02:46;;;;;;;2.67;2.58;;;9.80;99.90;;;;;;4990940;28;20297;-64
2023/04/16 07:05:14;;;;;;;2.60;2.50;;;9.80;99.90;;;;;;4992955;28;20202;-65
2023/04/16 07:07:41;;;;;;;3.13;2.92;;;9.80;99.90;;;;;;4994225;28;20297;-65
2023/04/16 07:10:09;;;;;;;2.92;2.83;;;9.80;99.90;;;;;;4992902;28;20784;-65
2023/04/16 07:12:36;;;;;;;2.70;2.60;;;9.80;99.90;;;;;;4993443;28;20206;-65
2023/04/16 07:15:03;;;;;;;2.70;2.60;;;9.70;99.90;;;;;;4993295;28;20296;-64
2023/04/16 07:17:29;;;;;;;2.50;2.40;;;9.70;99.90;;;;;;4993428;28;20210;-65
2023/04/16 07:19:56;;;;;;;2.45;2.35;;;9.80;99.90;;;;;;4992366;28;20226;-65
2023/04/16 07:22:24;;;;;;;2.30;2.20;;;9.80;99.90;;;;;;4992956;28;20305;-63
2023/04/16 07:24:51;;;;;;;2.70;2.60;;;9.70;99.90;;;;;;4992661;28;20216;-63
2023/04/16 07:27:18;;;;;;;2.80;2.70;;;9.80;99.90;;;;;;4992539;28;20292;-64
2023/04/16 07:29:45;;;;;;;2.72;2.63;;;9.80;99.90;;;;;;4991941;28;20324;-63
2023/04/16 07:32:12;;;;;;;2.60;2.50;;;10.00;99.90;;;;;;4997379;28;20210;-65
2023/04/16 07:34:39;;;;;;;2.50;2.40;;;9.80;99.90;;;;;;4995305;28;20735;-65
2023/04/16 07:37:06;;;;;;;2.70;2.60;;;9.80;99.90;;;;;;4994683;28;20668;-63
2023/04/16 07:39:34;;;;;;;2.45;2.35;;;9.80;99.90;;;;;;4993883;28;20228;-64
2023/04/16 07:42:01;;;;;;;2.40;2.30;;;9.80;99.90;;;;;;4994828;28;20249;-64
2023/04/16 07:44:28;;;;;;;2.67;2.58;;;9.80;99.90;;;;;;4994022;28;20208;-65
2023/04/16 07:46:54;;;;;;;2.70;2.60;;;9.70;99.90;;;;;;4993441;28;20248;-66
2023/04/16 07:49:23;;;;;;;2.72;2.63;;;9.70;99.90;;;;;;4994613;28;20276;-65
2023/04/16 07:51:51;;;;;;;3.10;3.00;;;9.70;99.90;;;;;;5001049;28;20274;-65
2023/04/16 07:54:18;;;;;;;2.63;2.53;;;9.80;99.90;;;;;;4995825;28;20723;-65
2023/04/16 07:56:47;;;;;;;2.50;2.40;;;9.80;99.90;;;;;;4994203;28;20221;-63
2023/04/16 07:59:14;;;;;;;2.60;2.50;;;9.80;99.90;;;;;;4991964;28;20224;-63
2023/04/16 08:01:41;;;;;;;2.60;2.50;;;9.90;99.90;;;;;;4992415;28;20210;-66
2023/04/16 08:04:08;;;;;;;2.75;2.65;;;10.00;99.90;;;;;;4992870;28;20209;-64
2023/04/16 08:06:34;;;;;;;2.90;2.75;;;10.00;99.90;;;;;;4992896;28;20209;-66
2023/04/16 08:09:01;;;;;;;2.58;2.47;;;10.00;99.90;;;;;;4994246;28;20229;-64
2023/04/16 08:11:28;;;;;;;3.00;2.90;;;10.00;99.90;;;;;;4992824;28;20563;-64
2023/04/16 08:13:56;;;;;;;2.63;2.53;;;10.10;99.90;;;;;;4992710;28;20224;-66
2023/04/16 08:16:23;;;;;;;2.70;2.60;;;10.10;99.90;;;;;;5002181;28;20206;-65
2023/04/16 08:18:50;;;;;;;2.90;2.80;;;10.00;99.90;;;;;;4995083;28;20226;-63
2023/04/16 08:21:17;;;;;;;3.13;2.92;;;10.00;99.90;;;;;;4989672;28;20213;-65
2023/04/16 08:23:44;;;;;;;2.63;2.53;;;10.00;99.90;;;;;;4990877;28;20216;-65
2023/04/16 08:26:11;;;;;;;2.60;2.50;;;10.00;99.90;;;;;;4994066;28;20273;-64
2023/04/16 08:28:37;;;;;;;2.80;2.70;;;10.00;99.90;;;;;;4988850;28;20255;-65
2023/04/16 08:31:06;;;;;;;2.38;2.28;;;10.20;99.90;;;;;;4998740;28;20316;-65
2023/04/16 08:33:32;;;;;;;2.50;2.40;;;10.10;99.90;;;;;;4999564;28;20229;-64
2023/04/16 08:35:59;;;;;;;2.60;2.50;;;10.10;99.90;;;;;;4995961;28;20198;-64
2023/04/16 08:38:26;;;;;;;2.50;2.40;;;10.10;99.90;;;;;;5003997;28;20226;-67
2023/04/16 08:40:54;;;;;;;2.55;2.45;;;10.30;99.90;;;;;;4977191;28;20201;-63
2023/04/16 08:43:24;;;;;;;2.40;2.30;;;10.10;99.90;;;;;;4973579;28;20678;-63
2023/04/16 08:45:55;;;;;;;2.88;2.78;;;10.20;99.90;;;;;;4973092;28;20246;-64
2023/04/16 08:48:24;;;;;;;2.60;2.50;;;10.30;99.90;;;;;;4985662;28;20226;-62
2023/04/16 08:50:53;;;;;;;2.97;2.80;;;10.30;99.90;;;;;;4973544;28;20222;-63
2023/04/16 08:53:26;;;;;;;3.00;2.90;;;10.30;99.90;;;;;;4973859;28;20207;-63
2023/04/16 08:55:54;;;;;;;2.88;2.78;;;10.30;99.90;;;;;;4995993;28;20238;-64
2023/04/16 08:58:23;;;;;;;2.80;2.70;;;10.30;99.90;;;;;;4998996;28;20211;-64
2023/04/16 09:00:50;;;;;;;2.63;2.53;;;10.20;99.90;;;;;;4998438;28;20226;-64
2023/04/16 09:03:18;;;;;;;2.80;2.70;;;10.20;99.90;;;;;;4998685;28;20238;-65
2023/04/16 09:05:47;;;;;;;2.63;2.53;;;10.20;99.90;;;;;;4998448;28;20222;-64
2023/04/16 09:08:14;;;;;;;2.70;2.60;;;10.20;99.90;;;;;;4996823;28;20206;-65
2023/04/16 09:10:42;;;;;;;2.90;2.80;;;10.20;99.90;;;;;;4993228;28;20222;-65
2023/04/16 09:13:12;;;;;;;2.60;2.50;;;10.30;99.90;;;;;;4974492;28;20199;-68
2023/04/16 09:15:40;;;;;;;2.85;2.75;;;10.30;99.90;;;;;;4974389;28;20207;-65
2023/04/16 09:18:07;;;;;;;2.40;2.30;;;10.30;99.90;;;;;;4974938;28;20956;-65
2023/04/16 09:20:34;;;;;;;2.30;2.20;;;10.40;99.90;;;;;;4973906;28;20199;-63
2023/04/16 09:23:03;;;;;;;2.90;2.80;;;10.50;99.90;;;;;;4973964;28;20221;-63
2023/04/16 09:25:33;;;;;;;2.80;2.70;;;10.40;99.90;;;;;;4974110;28;20209;-65
2023/04/16 09:28:00;;;;;;;2.47;2.38;;;10.40;99.90;;;;;;4974299;28;20258;-62
2023/04/16 09:30:28;;;;;;;2.72;2.63;;;10.50;99.90;;;;;;4973765;28;20396;-64
2023/04/16 09:33:15;;;;;;;2.78;2.67;;;10.60;99.90;;;;;;4988182;28;20202;-64
2023/04/16 09:35:46;;;;;;;2.60;2.50;;;10.60;99.90;;;;;;4977900;28;20206;-64
2023/04/16 09:38:15;;;;;;;3.47;3.10;;;10.60;99.90;;;;;;4975553;28;20264;-64
2023/04/16 09:40:42;;;;;;;2.93;2.73;;;10.50;99.90;;;;;;4996113;28;20198;-64
2023/04/16 09:43:12;;;;;;;2.70;2.60;;;10.60;99.90;;;;;;4995423;28;20214;-64
2023/04/16 09:45:49;;;;;;;2.40;2.30;;;10.60;99.90;;;;;;4993761;28;20210;-64
2023/04/16 09:48:27;;;;;;;2.28;2.17;;;10.70;99.90;;;;;;4993726;28;20217;-64
2023/04/16 09:50:54;;;;;;;2.60;2.50;;;10.80;99.90;;;;;;4994131;28;20227;-63
2023/04/16 09:53:25;;;;;;;2.60;2.50;;;10.90;99.90;;;;;;4995216;28;20202;-64
2023/04/16 09:55:52;;;;;;;2.50;2.40;;;10.90;99.90;;;;;;4994733;28;20217;-65
2023/04/16 09:58:19;;;;;;;2.55;2.45;;;11.00;99.90;;;;;;4993760;28;20226;-64
2023/04/16 10:00:46;;;;;;;2.40;2.30;;;11.10;99.90;;;;;;4994505;28;20206;-63
2023/04/16 10:03:13;;;;;;;2.70;2.60;;;11.00;99.90;;;;;;4993937;28;20695;-65
2023/04/16 10:05:40;;;;;;;2.50;2.40;;;10.90;99.90;;;;;;4993242;28;20337;-62
2023/04/16 10:08:12;;;;;;;2.40;2.30;;;11.00;99.90;;;;;;4993344;28;20210;-65
2023/04/16 10:10:41;;;;;;;2.57;2.47;;;11.10;99.90;;;;;;4991235;28;20222;-65
2023/04/16 10:13:08;;;;;;;2.20;2.10;;;11.20;99.90;;;;;;4993177;28;20210;-64
2023/04/16 10:15:35;;;;;;;2.40;2.30;;;11.30;99.90;;;;;;4994159;28;20209;-64
2023/04/16 10:18:04;;;;;;;2.58;2.47;;;11.30;99.90;;;;;;4994675;28;20206;-64
2023/04/16 10:20:31;;;;;;;2.30;2.20;;;11.30;99.90;;;;;;4995386;28;20208;-64
2023/04/16 10:22:59;;;;;;;2.40;2.30;;;11.20;99.90;;;;;;4998698;28;20669;-62
2023/04/16 10:25:27;;;;;;;2.40;2.30;;;11.20;99.90;;;;;;4996492;28;20210;-64
2023/04/16 10:27:58;;;;;;;2.45;2.35;;;11.20;99.90;;;;;;4994433;28;20212;-64
2023/04/16 10:30:27;;;;;;;2.60;2.50;;;11.30;99.90;;;;;;4993852;28;20289;-64
2023/04/16 10:32:54;;;;;;;2.60;2.40;;;11.30;99.90;;;;;;4994446;28;20210;-63
2023/04/16 10:35:21;;;;;;;2.20;2.10;;;11.40;99.90;;;;;;4994985;28;20218;-64
2023/04/16 10:37:48;;;;;;;2.50;2.40;;;11.50;99.90;;;;;;4994808;28;20220;-64
2023/04/16 10:40:32;;;;;;;2.40;2.30;;;11.60;99.90;;;;;;4997182;28;20218;-63
2023/04/16 10:43:01;;;;;;;2.50;2.40;;;11.50;99.90;;;;;;5002838;28;20206;-64
2023/04/16 10:45:31;;;;;;;2.13;2.03;;;11.60;99.90;;;;;;5003206;28;20213;-65
2023/04/16 10:47:58;;;;;;;2.40;2.30;;;11.60;99.90;;;;;;5003062;28;20606;-64
2023/04/16 10:50:33;;;;;;;2.65;2.55;;;11.60;99.90;;;;;;5001482;28;20238;-64
2023/04/16 10:53:19;;;;;;;2.25;2.15;;;11.50;99.90;;;;;;4994858;28;20209;-64
2023/04/16 10:56:12;;;;;;;2.17;2.07;;;11.60;99.90;;;;;;4993971;28;20214;-64
2023/04/16 10:58:41;;;;;;;2.20;2.10;;;11.50;99.90;;;;;;4992086;28;20320;-62
2023/04/16 11:01:13;;;;;;;2.40;2.30;;;11.60;99.90;;;;;;4994524;28;20595;-63
2023/04/16 11:03:45;;;;;;;2.42;2.33;;;11.50;99.90;;;;;;4999534;28;20190;-62
2023/04/16 11:06:13;;;;;;;2.23;2.13;;;11.50;99.90;;;;;;5002935;28;20217;-63
2023/04/16 11:08:42;;;;;;;2.30;2.20;;;11.40;99.90;;;;;;4997676;28;20250;-64
2023/04/16 11:11:09;;;;;;;2.13;2.03;;;11.40;99.90;;;;;;5007027;28;20227;-65
2023/04/16 11:13:37;;;;;;;2.40;2.30;;;11.40;99.90;;;;;;4997721;28;20672;-64
2023/04/16 11:16:05;;;;;;;2.33;2.23;;;11.40;99.90;;;;;;4992753;28;20209;-63
2023/04/16 11:18:32;;;;;;;2.13;2.03;;;11.30;99.90;;;;;;4991207;28;20232;-64
2023/04/16 11:21:00;;;;;;;2.30;2.20;;;11.30;99.90;;;;;;4992881;28;20252;-63
2023/04/16 11:23:27;;;;;;;2.30;2.20;;;11.40;99.90;;;;;;4991795;28;20212;-63
2023/04/16 11:25:56;;;;;;;2.20;2.10;;;11.50;99.90;;;;;;4992746;28;20236;-65
2023/04/16 11:28:33;;;;;;;2.35;2.25;;;11.50;99.90;;;;;;4992571;28;20282;-67
2023/04/16 11:31:12;;;;;;;2.20;2.10;;;11.70;99.90;;;;;;4987201;28;20248;-63
2023/04/16 11:33:39;;;;;;;2.30;2.20;;;11.70;99.90;;;;;;4992201;28;20209;-64
2023/04/16 11:36:06;;;;;;;2.10;2.00;;;11.60;99.90;;;;;;4994403;28;20245;-64
2023/04/16 11:38:35;;;;;;;2.23;2.13;;;11.70;99.90;;;;;;4994828;28;20233;-63
2023/04/16 11:41:02;;;;;;;2.00;1.90;;;11.70;99.90;;;;;;4993275;28;20210;-65
2023/04/16 11:43:30;;;;;;;2.45;2.35;;;11.60;99.90;;;;;;4994185;28;20202;-63
2023/04/16 11:45:58;;;;;;;2.53;2.43;;;11.50;99.90;;;;;;4993388;28;20228;-65
2023/04/16 11:48:45;;;;;;;2.60;2.50;;;11.60;99.90;;;;;;4994388;28;20269;-63
2023/04/16 11:51:12;;;;;;;2.72;2.63;;;11.60;99.90;;;;;;4993400;28;20304;-63
2023/04/16 11:53:46;;;;;;;2.60;2.50;;;11.50;99.90;;;;;;4994212;28;20645;-63
2023/04/16 11:56:13;;;;;;;2.30;2.20;;;11.40;99.90;;;;;;4994088;28;20213;-61
2023/04/16 11:58:41;;;;;;;2.70;2.60;;;11.40;99.90;;;;;;4988256;28;20222;-63
2023/04/16 12:01:08;;;;;;;2.10;2.00;;;11.30;99.90;;;;;;4986265;28;20210;-63
2023/04/16 12:03:42;;;;;;;2.27;2.17;;;11.40;99.90;;;;;;4992562;28;20198;-63
2023/04/16 12:06:10;;;;;;;2.28;2.17;;;11.60;99.90;;;;;;4991885;28;20324;-63
2023/04/16 12:08:37;;;;;;;2.60;2.50;;;11.60;99.90;;;;;;4987631;28;20285;-62
2023/04/16 12:11:03;;;;;;;2.30;2.20;;;11.50;99.90;;;;;;4984786;28;20791;-62
2023/04/16 12:13:38;;;;;;;2.20;2.10;;;11.50;99.90;;;;;;4983381;28;20202;-63
2023/04/16 12:16:19;;;;;;;2.50;2.40;;;11.60;99.90;;;;;;4975560;28;20269;-63
2023/04/16 12:19:04;;;;;;;2.40;2.30;;;11.70;99.90;;;;;;4972413;28;20238;-62
2023/04/16 12:21:38;;;;;;;2.20;2.10;;;11.70;99.90;;;;;;4972693;28;20254;-64
2023/04/16 12:24:06;;;;;;;2.60;2.50;;;11.60;99.90;;;;;;4972009;28;20210;-63
2023/04/16 12:26:38;;;;;;;2.50;2.40;;;11.50;99.90;;;;;;4972773;28;20213;-63
2023/04/16 12:29:19;;;;;;;2.30;2.20;;;11.60;99.90;;;;;;4971730;28;20704;-63
2023/04/16 12:31:47;;;;;;;2.00;1.90;;;11.50;99.90;;;;;;4976474;28;20231;-63
2023/04/16 12:34:16;;;;;;;2.58;2.47;;;11.60;99.90;;;;;;4976527;28;20244;-64
2023/04/16 12:36:43;;;;;;;2.30;2.20;;;11.60;99.90;;;;;;4974715;28;20215;-63
2023/04/16 12:39:11;;;;;;;2.35;2.25;;;11.70;99.90;;;;;;4975302;28;20230;-63
2023/04/16 12:41:39;;;;;;;2.37;2.27;;;11.90;99.90;;;;;;4976455;28;20202;-61
2023/04/16 12:44:10;;;;;;;2.40;2.30;;;11.90;99.90;;;;;;4976461;28;20215;-62
2023/04/16 12:46:38;;;;;;;2.20;2.10;;;11.90;99.90;;;;;;4976270;28;20268;-62
2023/04/16 12:49:05;;;;;;;2.50;2.40;;;12.00;99.90;;;;;;4975747;28;20332;-62
2023/04/16 12:51:33;;;;;;;2.30;2.20;;;11.90;99.90;;;;;;4975638;28;20577;-63